createdAt,value
2018-05-19T14:12:57.963Z,18.50
2018-05-19T14:15:28.299Z,18.50
2018-05-19T14:18:00.898Z,18.60
2018-05-19T14:20:44.884Z,18.90
2018-05-19T14:23:16.264Z,18.90
2018-05-19T14:25:46.889Z,18.90
2018-05-19T14:28:17.557Z,18.60
2018-05-19T14:30:49.488Z,18.70
2018-05-19T14:33:20.454Z,18.70
2018-05-19T14:35:50.849Z,18.80
2018-05-19T14:38:21.341Z,18.90
2018-05-19T14:40:51.956Z,19.00
2018-05-19T14:43:22.840Z,18.80
2018-05-19T14:45:53.945Z,18.90
2018-05-19T14:48:52.266Z,18.20
2018-05-19T14:51:23.754Z,18.10
2018-05-19T14:53:54.676Z,18.50
2018-05-19T14:56:25.452Z,18.20
2018-05-19T14:58:56.857Z,18.40
2018-05-19T15:01:28.812Z,18.60
2018-05-19T15:04:00.040Z,18.80
2018-05-19T15:06:31.472Z,18.80
2018-05-19T15:09:02.403Z,19.20
2018-05-19T15:11:33.543Z,19.30
2018-05-19T15:14:04.207Z,19.30
2018-05-19T15:16:34.925Z,18.90
2018-05-19T15:19:06.227Z,18.80
2018-05-19T15:21:37.806Z,18.80
2018-05-19T15:24:09.178Z,19.10
2018-05-19T15:26:39.933Z,19.10
2018-05-19T15:29:10.333Z,19.30
2018-05-19T15:31:40.819Z,19.40
2018-05-19T15:34:13.421Z,19.60
2018-05-19T15:36:44.417Z,19.60
2018-05-19T15:39:15.576Z,19.70
2018-05-19T15:41:47.529Z,19.90
2018-05-19T15:44:19.149Z,20.20
2018-05-19T15:46:52.281Z,20.20
2018-05-19T15:49:25.298Z,20.60
2018-05-19T15:51:56.035Z,20.90
2018-05-19T15:54:27.797Z,20.80
2018-05-19T15:56:58.506Z,20.70
2018-05-19T15:59:29.160Z,20.70
2018-05-19T16:01:59.760Z,20.70
2018-05-19T16:04:33.226Z,20.80
2018-05-19T16:07:04.698Z,20.80
2018-05-19T16:09:35.061Z,20.80
2018-05-19T16:12:05.518Z,20.80
2018-05-19T16:14:35.892Z,20.80
2018-05-19T16:17:07.001Z,20.90
2018-05-19T16:19:37.796Z,20.80
2018-05-19T16:22:08.482Z,20.70
2018-05-19T16:24:39.117Z,20.60
2018-05-19T16:27:11.393Z,20.70
2018-05-19T16:29:41.998Z,20.70
2018-05-19T16:32:13.091Z,20.70
2018-05-19T16:34:43.404Z,20.60
2018-05-19T16:37:16.124Z,20.30
2018-05-19T16:39:46.636Z,20.30
2018-05-19T16:42:17.989Z,20.30
2018-05-19T16:44:49.280Z,20.10
2018-05-19T16:47:19.658Z,20.00
2018-05-19T16:49:50.426Z,19.80
2018-05-19T16:52:22.354Z,19.80
2018-05-19T16:54:53.815Z,19.80
2018-05-19T16:57:24.283Z,19.80
2018-05-19T16:59:55.814Z,19.70
2018-05-19T17:02:26.928Z,19.60
2018-05-19T17:04:57.548Z,19.50
2018-05-19T17:07:28.038Z,19.50
2018-05-19T17:09:59.703Z,19.50
2018-05-19T17:12:30.411Z,19.50
2018-05-19T17:15:01.506Z,19.60
2018-05-19T17:17:50.666Z,19.50
2018-05-19T17:20:21.288Z,19.50
2018-05-19T17:22:51.718Z,19.40
2018-05-19T17:25:22.455Z,19.20
2018-05-19T17:27:53.445Z,19.20
2018-05-19T17:30:24.044Z,19.20
2018-05-19T17:32:54.571Z,19.30
2018-05-19T17:35:28.742Z,19.30
2018-05-19T17:37:59.158Z,19.30
2018-05-19T17:40:36.749Z,19.20
2018-05-19T17:43:07.742Z,19.20
2018-05-19T17:45:39.147Z,19.00
2018-05-19T17:48:10.989Z,18.90
2018-05-19T17:50:41.960Z,18.90
2018-05-19T17:53:13.208Z,18.90
2018-05-19T17:55:47.877Z,18.80
2018-05-19T17:58:20.739Z,18.80
2018-05-19T18:00:52.271Z,18.60
2018-05-19T18:03:25.248Z,18.60
2018-05-19T18:05:56.963Z,18.50
2018-05-19T18:08:27.502Z,18.30
2018-05-19T18:10:59.143Z,18.20
2018-05-19T18:13:30.545Z,18.10
2018-05-19T18:16:01.413Z,18.10
2018-05-19T18:18:33.113Z,18.10
2018-05-19T18:21:03.985Z,18.20
2018-05-19T18:23:35.630Z,18.10
2018-05-19T18:26:07.703Z,18.00
2018-05-19T18:28:38.688Z,18.10
2018-05-19T18:31:10.127Z,18.10
2018-05-19T18:33:40.590Z,18.00
2018-05-19T18:36:11.881Z,17.90
2018-05-19T18:38:44.113Z,17.60
2018-05-19T18:41:18.276Z,17.60
2018-05-19T18:43:49.774Z,17.40
2018-05-19T18:46:20.427Z,17.20
2018-05-19T18:48:51.661Z,17.00
2018-05-19T18:51:23.305Z,16.90
2018-05-19T18:53:54.812Z,16.70
2018-05-19T18:56:28.651Z,16.60
2018-05-19T18:59:02.615Z,16.50
2018-05-19T19:01:34.673Z,16.40
2018-05-19T19:04:06.624Z,16.30
2018-05-19T19:06:39.617Z,16.30
2018-05-19T19:09:11.756Z,16.20
2018-05-19T19:11:47.823Z,16.10
2018-05-19T19:14:19.006Z,16.10
2018-05-19T19:16:50.343Z,16.10
2018-05-19T19:19:22.725Z,15.90
2018-05-19T19:21:53.820Z,15.90
2018-05-19T19:24:25.160Z,15.90
2018-05-19T19:26:57.241Z,15.90
2018-05-19T19:29:28.631Z,15.70
2018-05-19T19:32:00.304Z,15.70
2018-05-19T19:34:33.469Z,15.60
2018-05-19T19:37:05.407Z,15.50
2018-05-19T19:39:36.840Z,15.50
2018-05-19T19:42:09.473Z,15.50
2018-05-19T19:44:41.122Z,15.40
2018-05-19T19:47:11.846Z,15.40
2018-05-19T19:49:42.992Z,15.40
2018-05-19T19:52:14.713Z,15.40
2018-05-19T19:54:45.258Z,15.40
2018-05-19T19:57:15.887Z,15.30
2018-05-19T19:59:46.713Z,15.30
2018-05-19T20:02:18.053Z,15.30
2018-05-19T20:04:51.411Z,15.20
2018-05-19T20:07:22.778Z,15.30
2018-05-19T20:09:53.354Z,15.30
2018-05-19T20:12:24.211Z,15.20
2018-05-19T20:14:54.925Z,15.00
2018-05-19T20:17:27.677Z,14.90
2018-05-19T20:19:59.037Z,14.90
2018-05-19T20:22:30.044Z,14.90
2018-05-19T20:25:00.838Z,14.90
2018-05-19T20:27:32.250Z,14.90
2018-05-19T20:30:02.777Z,14.90
2018-05-19T20:32:33.871Z,14.80
2018-05-19T20:35:04.539Z,14.80
2018-05-19T20:37:38.322Z,14.70
2018-05-19T20:40:08.671Z,14.60
2018-05-19T20:42:40.721Z,14.60
2018-05-19T20:45:11.877Z,14.60
2018-05-19T20:47:43.187Z,14.40
2018-05-19T20:50:14.995Z,14.40
2018-05-19T20:52:45.728Z,14.40
2018-05-19T20:55:16.444Z,14.30
2018-05-19T20:57:47.103Z,14.10
2018-05-19T21:00:18.206Z,14.00
2018-05-19T21:02:49.120Z,13.90
2018-05-19T21:05:20.076Z,13.80
2018-05-19T21:07:56.503Z,13.80
2018-05-19T21:10:28.045Z,13.80
2018-05-19T21:12:59.611Z,13.70
2018-05-19T21:15:30.135Z,13.70
2018-05-19T21:18:00.778Z,13.70
2018-05-19T21:20:31.628Z,13.60
2018-05-19T21:23:02.107Z,13.50
2018-05-19T21:25:33.393Z,13.40
2018-05-19T21:28:04.224Z,13.40
2018-05-19T21:30:36.650Z,13.30
2018-05-19T21:33:09.521Z,13.20
2018-05-19T21:35:40.026Z,13.20
2018-05-19T21:38:10.922Z,13.20
2018-05-19T21:40:41.872Z,13.10
2018-05-19T21:43:12.674Z,13.10
2018-05-19T21:45:43.386Z,13.10
2018-05-19T21:48:13.827Z,13.00
2018-05-19T21:50:46.888Z,13.00
2018-05-19T21:53:18.389Z,13.00
2018-05-19T21:55:49.152Z,13.00
2018-05-19T21:58:20.977Z,12.90
2018-05-19T22:00:51.664Z,12.90
2018-05-19T22:03:22.236Z,12.80
2018-05-19T22:05:54.023Z,12.80
2018-05-19T22:08:26.144Z,12.80
2018-05-19T22:10:58.235Z,12.80
2018-05-19T22:13:30.743Z,12.70
2018-05-19T22:16:02.574Z,12.70
2018-05-19T22:18:33.030Z,12.60
2018-05-19T22:21:06.100Z,12.40
2018-05-19T22:23:37.584Z,12.30
2018-05-19T22:26:08.137Z,12.20
2018-05-19T22:28:40.142Z,12.20
2018-05-19T22:31:10.667Z,12.10
2018-05-19T22:33:41.544Z,12.10
2018-05-19T22:36:13.214Z,12.10
2018-05-19T22:38:44.106Z,12.10
2018-05-19T22:41:14.905Z,12.10
2018-05-19T22:43:59.168Z,12.10
2018-05-19T22:46:30.641Z,12.10
2018-05-19T22:49:02.104Z,12.00
2018-05-19T22:51:32.872Z,12.00
2018-05-19T22:54:04.604Z,12.00
2018-05-19T22:56:35.390Z,12.00
2018-05-19T22:59:06.374Z,12.00
2018-05-19T23:01:36.894Z,11.90
2018-05-19T23:04:08.137Z,11.90
2018-05-19T23:06:43.679Z,11.80
2018-05-19T23:09:15.283Z,11.80
2018-05-19T23:11:49.203Z,11.70
2018-05-19T23:14:26.578Z,11.70
2018-05-19T23:16:59.603Z,11.70
2018-05-19T23:19:31.072Z,11.60
2018-05-19T23:22:03.564Z,11.60
2018-05-19T23:24:35.321Z,11.50
2018-05-19T23:27:07.125Z,11.50
2018-05-19T23:29:39.376Z,11.40
2018-05-19T23:32:11.923Z,11.40
2018-05-19T23:34:45.532Z,11.30
2018-05-19T23:37:17.698Z,11.30
2018-05-19T23:39:53.763Z,11.30
2018-05-19T23:42:26.548Z,11.30
2018-05-19T23:45:01.565Z,11.20
2018-05-19T23:47:33.633Z,11.10
2018-05-19T23:50:09.916Z,11.00
2018-05-19T23:52:41.279Z,11.00
2018-05-19T23:55:13.678Z,11.00
2018-05-19T23:57:46.608Z,11.00
